Hauptseite
METAR-TAF:

METAR-TAF

Flughäfen :

Zeltweg, Österreich

Fliegerhorst Hinterstoisser

Breite: 47-12N, Länge: 014-45E, Höhe: 677 m

Beobachtung

Neuester Wetterbericht von vor 16 Minuten, um 11:20 UTC
Wind 3 kt aus unterschiedlichen Richtungen
Temperatur 11°C
Luftfeuchtigkeit 66%
Luftdruck 1024 hPa

METAR: LOXZ 251120Z VRB03KT 20KM FEW020ST 11/05 Q1024 NOSIG

Zeit: 12:36 (11:36 UTC)

Prognose

Neuester Wetterbericht von vor 21 Minuten, um 11:15 UTC
Gültige Prognose vom 25 um 12 UTC bis 25 um 21 UTC
Wind 3 kt aus unterschiedlichen Richtungen
Sichtweite 10 km oder mehr
Leicht bewölkt in der Höhe von 4000 ft
Aufgelockert bewölkt in der Höhe von 30000 ft
Zeitweise
vom 25 um 12 UTC bis 25 um 17 UTC
Wind 7 kt aus Ost/Südost

TAF: LOXZ 251115Z 2512/2521 VRB03KT 9999 FEW040 SCT300 TEMPO 2512/2517 12007KT

Wetterbeobachtungen und Prognosen von mehr als 4000 Flughäfen (METAR und TAF Bericht).

Die verfügbaren Stationen werden durch gelbe und rote Markierungen auf der Karte dargestellt.

Führen Sie die Maus auf sie, um den Namen der Station zu sehen.

Darauf klicken, um die Beobachtung von Wetterbeobachtungen und Prognosen zu sehen.

Um die Karte zu ändern : klicken Sie auf den grünen Tasten mit einem schwarzen Kreuz Zum Vergrößern, auf den grünen Button mit einem Gedankenstrich zu verkleinern, oder auf die grünen Pfeile für benachbarte Karten.


METAR-TAF: